createdAt,value
2018-07-15T00:00:18.888Z,19.09
2018-07-15T00:01:18.814Z,19.11
2018-07-15T00:02:18.760Z,19.12
2018-07-15T00:03:18.668Z,19.11
2018-07-15T00:04:18.601Z,19.14
2018-07-15T00:05:18.557Z,19.02
2018-07-15T00:06:18.446Z,19.12
2018-07-15T00:07:18.381Z,19.08
2018-07-15T00:08:18.300Z,19.04
2018-07-15T00:09:18.234Z,18.99
2018-07-15T00:10:18.153Z,19.11
2018-07-15T00:11:18.073Z,19.02
2018-07-15T00:12:18.012Z,19.02
2018-07-15T00:13:17.926Z,18.99
2018-07-15T00:14:17.860Z,19.02
2018-07-15T00:15:17.801Z,19.00
2018-07-15T00:16:17.705Z,18.98
2018-07-15T00:17:17.633Z,18.89
2018-07-15T00:18:17.558Z,18.90
2018-07-15T00:19:17.488Z,18.83
2018-07-15T00:20:17.472Z,18.86
2018-07-15T00:21:17.337Z,18.80
2018-07-15T00:22:17.262Z,18.84
2018-07-15T00:23:17.186Z,18.83
2018-07-15T00:24:17.113Z,18.66
2018-07-15T00:25:17.039Z,18.68
2018-07-15T00:26:16.963Z,18.65
2018-07-15T00:27:16.889Z,18.63
2018-07-15T00:28:16.815Z,18.63
2018-07-15T00:29:16.745Z,18.58
2018-07-15T00:30:16.688Z,18.56
2018-07-15T00:31:16.594Z,18.52
2018-07-15T00:32:16.521Z,18.53
2018-07-15T00:33:16.444Z,18.53
2018-07-15T00:34:16.379Z,18.50
2018-07-15T00:35:16.319Z,18.47
2018-07-15T00:36:16.222Z,18.52
2018-07-15T00:37:16.149Z,18.56
2018-07-15T00:38:16.077Z,18.53
2018-07-15T00:39:16.002Z,18.52
2018-07-15T00:40:15.925Z,18.49
2018-07-15T00:41:15.866Z,18.56
2018-07-15T00:42:15.777Z,18.44
2018-07-15T00:43:15.702Z,18.45
2018-07-15T00:44:15.632Z,18.40
2018-07-15T00:45:15.563Z,18.41
2018-07-15T00:46:15.478Z,18.37
2018-07-15T00:47:15.403Z,18.41
2018-07-15T00:48:15.331Z,18.43
2018-07-15T00:49:15.256Z,18.31
2018-07-15T00:50:15.192Z,18.29
2018-07-15T00:51:15.109Z,18.26
2018-07-15T00:52:15.035Z,18.29
2018-07-15T00:53:14.959Z,18.29
2018-07-15T00:54:14.885Z,18.35
2018-07-15T00:55:14.852Z,18.34
2018-07-15T00:56:14.737Z,18.26
2018-07-15T00:57:14.660Z,18.29
2018-07-15T00:58:14.586Z,18.19
2018-07-15T00:59:14.513Z,18.22
2018-07-15T01:00:14.440Z,18.15
2018-07-15T01:01:14.365Z,18.01
2018-07-15T01:02:14.287Z,18.04
2018-07-15T01:03:14.214Z,18.07
2018-07-15T01:04:14.142Z,18.01
2018-07-15T01:05:14.067Z,18.07
2018-07-15T01:06:13.990Z,18.04
2018-07-15T01:07:13.914Z,18.05
2018-07-15T01:08:13.842Z,18.01
2018-07-15T01:09:13.767Z,17.98
2018-07-15T01:10:13.690Z,18.00
2018-07-15T01:11:13.614Z,17.92
2018-07-15T01:12:13.544Z,17.86
2018-07-15T01:13:13.466Z,17.79
2018-07-15T01:14:13.421Z,17.79
2018-07-15T01:15:13.321Z,17.74
2018-07-15T01:16:13.244Z,17.70
2018-07-15T01:17:13.168Z,17.65
2018-07-15T01:18:13.125Z,17.72
2018-07-15T01:19:13.017Z,17.87
2018-07-15T01:20:12.945Z,17.79
2018-07-15T01:21:12.939Z,17.71
2018-07-15T01:22:12.795Z,17.71
2018-07-15T01:23:12.719Z,17.79
2018-07-15T01:24:12.662Z,17.76
2018-07-15T01:25:12.568Z,17.71
2018-07-15T01:26:12.494Z,17.72
2018-07-15T01:27:12.420Z,17.72
2018-07-15T01:28:12.347Z,17.76
2018-07-15T01:29:12.274Z,17.72
2018-07-15T01:30:12.194Z,17.67
2018-07-15T01:31:12.122Z,17.74
2018-07-15T01:32:12.047Z,17.76
2018-07-15T01:33:11.993Z,17.80
2018-07-15T01:34:11.894Z,17.79
2018-07-15T01:35:11.825Z,17.76
2018-07-15T01:36:11.748Z,17.72
2018-07-15T01:37:11.673Z,17.79
2018-07-15T01:38:11.604Z,17.71
2018-07-15T01:39:11.524Z,17.76
2018-07-15T01:40:11.452Z,17.79
2018-07-15T01:41:11.376Z,17.78
2018-07-15T01:42:11.296Z,17.87
2018-07-15T01:43:11.243Z,17.82
2018-07-15T01:44:11.147Z,17.78
2018-07-15T01:45:11.073Z,17.86
2018-07-15T01:46:10.996Z,17.87
2018-07-15T01:47:10.926Z,17.82
2018-07-15T01:48:10.872Z,17.83
2018-07-15T01:49:10.786Z,17.87
2018-07-15T01:50:10.698Z,17.87
2018-07-15T01:51:10.622Z,17.85
2018-07-15T01:52:11.327Z,17.94
2018-07-15T01:53:10.473Z,17.92
2018-07-15T01:54:10.401Z,17.95
2018-07-15T01:55:10.326Z,17.92
2018-07-15T01:56:10.254Z,17.94
2018-07-15T01:57:10.174Z,17.92
2018-07-15T01:58:10.121Z,17.92
2018-07-15T01:59:10.029Z,17.95
2018-07-15T02:00:09.954Z,17.98
2018-07-15T02:01:09.873Z,17.97
2018-07-15T02:02:09.819Z,17.89
2018-07-15T02:03:09.725Z,17.98
2018-07-15T02:04:09.651Z,17.97
2018-07-15T02:05:09.575Z,17.94
2018-07-15T02:06:09.499Z,17.87
2018-07-15T02:07:09.428Z,17.87
2018-07-15T02:08:09.350Z,17.90
2018-07-15T02:09:09.286Z,17.85
2018-07-15T02:10:09.256Z,17.79
2018-07-15T02:11:09.127Z,17.87
2018-07-15T02:12:09.056Z,17.78
2018-07-15T02:13:08.987Z,17.76
2018-07-15T02:14:08.905Z,17.70
2018-07-15T02:15:08.827Z,17.72
2018-07-15T02:16:08.751Z,17.59
2018-07-15T02:17:08.701Z,17.59
2018-07-15T02:18:08.605Z,17.59
2018-07-15T02:19:08.534Z,17.63
2018-07-15T02:20:08.452Z,17.54
2018-07-15T02:21:08.378Z,17.60
2018-07-15T02:22:08.306Z,17.52
2018-07-15T02:23:08.236Z,17.64
2018-07-15T02:24:08.151Z,17.54
2018-07-15T02:25:08.077Z,17.56
2018-07-15T02:26:08.004Z,17.56
2018-07-15T02:27:07.927Z,17.60
2018-07-15T02:28:07.854Z,17.54
2018-07-15T02:29:07.791Z,17.51
2018-07-15T02:30:07.715Z,17.57
2018-07-15T02:31:07.626Z,17.54
2018-07-15T02:32:07.552Z,17.52
2018-07-15T02:33:07.480Z,17.57
2018-07-15T02:34:07.407Z,17.48
2018-07-15T02:35:07.329Z,17.56
2018-07-15T02:36:07.258Z,17.39
2018-07-15T02:37:07.179Z,17.39
2018-07-15T02:38:07.106Z,17.41
2018-07-15T02:39:07.028Z,17.29
2018-07-15T02:40:06.957Z,17.31
2018-07-15T02:41:06.877Z,17.24
2018-07-15T02:42:06.801Z,17.30
2018-07-15T02:43:06.729Z,17.34
2018-07-15T02:44:06.655Z,17.29
2018-07-15T02:45:06.581Z,17.26
2018-07-15T02:46:06.504Z,17.19
2018-07-15T02:47:06.436Z,17.12
2018-07-15T02:48:06.355Z,17.16
2018-07-15T02:49:06.276Z,17.08
2018-07-15T02:50:06.205Z,17.01
2018-07-15T02:51:06.127Z,17.02
2018-07-15T02:52:06.050Z,16.97
2018-07-15T02:53:05.976Z,16.99
2018-07-15T02:54:05.900Z,17.08
2018-07-15T02:55:05.831Z,17.06
2018-07-15T02:56:05.751Z,16.97
2018-07-15T02:57:05.676Z,16.99
2018-07-15T02:58:05.613Z,16.94
2018-07-15T02:59:05.526Z,16.96
2018-07-15T03:00:05.449Z,16.93
2018-07-15T03:01:05.373Z,16.94
2018-07-15T03:02:05.299Z,16.86
2018-07-15T03:03:05.227Z,16.89
2018-07-15T03:04:05.149Z,16.89
2018-07-15T03:05:05.073Z,16.96
2018-07-15T03:06:04.996Z,16.97
2018-07-15T03:07:04.923Z,16.99
2018-07-15T03:08:04.854Z,16.97
2018-07-15T03:09:04.774Z,16.87
2018-07-15T03:10:04.696Z,16.99
2018-07-15T03:11:04.622Z,16.96
2018-07-15T03:12:04.545Z,16.99
2018-07-15T03:13:04.478Z,17.02
2018-07-15T03:14:04.396Z,16.97
2018-07-15T03:15:04.320Z,16.99
2018-07-15T03:16:04.246Z,17.06
2018-07-15T03:17:04.170Z,17.04
2018-07-15T03:18:04.095Z,17.02
2018-07-15T03:19:04.018Z,17.06
2018-07-15T03:20:03.946Z,16.99
2018-07-15T03:21:03.868Z,17.08
2018-07-15T03:22:03.805Z,17.16
2018-07-15T03:23:03.736Z,17.05
2018-07-15T03:24:03.658Z,17.06
2018-07-15T03:25:03.565Z,17.06
2018-07-15T03:26:03.492Z,17.09
2018-07-15T03:27:03.417Z,17.14
2018-07-15T03:28:03.353Z,17.08
2018-07-15T03:29:03.265Z,17.12
2018-07-15T03:30:03.192Z,17.16
2018-07-15T03:31:03.112Z,17.12
2018-07-15T03:32:03.043Z,17.12
2018-07-15T03:33:02.964Z,17.12
2018-07-15T03:34:02.892Z,17.12
2018-07-15T03:35:02.813Z,17.19
2018-07-15T03:36:02.739Z,17.15
2018-07-15T03:37:02.661Z,17.16
2018-07-15T03:38:02.589Z,17.19
2018-07-15T03:39:02.511Z,17.15
2018-07-15T03:40:02.435Z,17.15
2018-07-15T03:41:02.361Z,17.16
2018-07-15T03:42:02.286Z,17.19
2018-07-15T03:43:02.232Z,17.16
2018-07-15T03:44:02.140Z,17.24
2018-07-15T03:45:02.069Z,17.23
2018-07-15T03:46:01.983Z,17.27
2018-07-15T03:47:01.910Z,17.26
2018-07-15T03:48:01.831Z,17.24
2018-07-15T03:49:01.757Z,17.22
2018-07-15T03:50:01.682Z,17.24
2018-07-15T03:51:01.633Z,17.20
2018-07-15T03:52:01.534Z,17.23
2018-07-15T03:53:01.471Z,17.15
2018-07-15T03:54:01.387Z,17.11
2018-07-15T03:55:01.306Z,17.14
2018-07-15T03:56:01.230Z,17.04
2018-07-15T03:57:01.163Z,17.08
2018-07-15T03:58:01.077Z,16.97
2018-07-15T03:59:01.004Z,16.97
2018-07-15T04:00:00.927Z,17.04
2018-07-15T04:01:00.859Z,17.09
2018-07-15T04:02:00.781Z,17.01
2018-07-15T04:03:00.720Z,16.99
2018-07-15T04:04:00.687Z,16.96
2018-07-15T04:05:00.553Z,17.04
2018-07-15T04:06:00.478Z,17.05
2018-07-15T04:07:00.432Z,16.97
2018-07-15T04:08:00.324Z,17.08
2018-07-15T04:09:00.322Z,17.05
2018-07-15T04:10:00.177Z,16.97
2018-07-15T04:11:00.106Z,16.94
2018-07-15T04:12:00.043Z,16.87
2018-07-15T04:12:59.949Z,16.86
2018-07-15T04:13:59.876Z,16.84
2018-07-15T04:14:59.799Z,16.87
2018-07-15T04:15:59.726Z,16.87
2018-07-15T04:16:59.651Z,16.86
2018-07-15T04:17:59.576Z,16.86
2018-07-15T04:18:59.503Z,16.83
2018-07-15T04:19:59.422Z,16.86
2018-07-15T04:20:59.344Z,16.91
2018-07-15T04:21:59.269Z,16.90
2018-07-15T04:22:59.204Z,16.90
2018-07-15T04:23:59.134Z,16.87
2018-07-15T04:24:59.045Z,16.90
2018-07-15T04:25:58.970Z,16.93
2018-07-15T04:26:58.894Z,16.89
2018-07-15T04:27:58.833Z,16.87
2018-07-15T04:28:58.744Z,16.91
2018-07-15T04:29:58.666Z,16.93
2018-07-15T04:30:58.602Z,16.93
2018-07-15T04:31:58.517Z,16.96
2018-07-15T04:32:58.450Z,16.97
2018-07-15T04:33:58.366Z,17.06
2018-07-15T04:34:58.295Z,17.11
2018-07-15T04:35:58.214Z,17.14
2018-07-15T04:36:58.142Z,17.15
2018-07-15T04:37:58.154Z,17.22
2018-07-15T04:38:57.993Z,17.20
2018-07-15T04:39:57.917Z,17.23
2018-07-15T04:40:57.840Z,17.19
2018-07-15T04:41:57.764Z,17.24
2018-07-15T04:42:57.693Z,17.29
2018-07-15T04:43:57.669Z,17.33
2018-07-15T04:44:57.543Z,17.38
2018-07-15T04:45:57.465Z,17.34
2018-07-15T04:46:57.392Z,17.42
2018-07-15T04:47:57.323Z,17.39
2018-07-15T04:48:57.239Z,17.39
2018-07-15T04:49:57.164Z,17.51
2018-07-15T04:50:57.088Z,17.52
2018-07-15T04:51:57.014Z,17.54
2018-07-15T04:52:56.963Z,17.56
2018-07-15T04:53:56.883Z,17.64
2018-07-15T04:54:56.791Z,17.65
2018-07-15T04:55:56.714Z,17.79
2018-07-15T04:56:56.646Z,17.80
2018-07-15T04:57:56.567Z,17.72
2018-07-15T04:58:56.501Z,17.79
2018-07-15T04:59:56.420Z,17.82
2018-07-15T05:00:56.342Z,17.92
2018-07-15T05:01:56.306Z,17.94
2018-07-15T05:02:56.192Z,17.89
2018-07-15T05:03:56.134Z,17.95
2018-07-15T05:04:56.042Z,17.98
2018-07-15T05:05:55.968Z,17.98
2018-07-15T05:06:55.893Z,18.08
2018-07-15T05:07:55.819Z,18.05
2018-07-15T05:08:55.746Z,18.01
2018-07-15T05:09:55.669Z,18.11
2018-07-15T05:10:55.592Z,18.03
2018-07-15T05:11:55.521Z,18.03
2018-07-15T05:12:55.463Z,18.19
2018-07-15T05:13:55.370Z,18.08
2018-07-15T05:14:55.298Z,18.18
2018-07-15T05:15:55.220Z,18.22
2018-07-15T05:16:55.147Z,18.20
2018-07-15T05:17:55.088Z,18.34
2018-07-15T05:18:55.013Z,18.31
2018-07-15T05:19:54.923Z,18.31
2018-07-15T05:20:54.852Z,18.41
2018-07-15T05:21:54.773Z,18.31
2018-07-15T05:22:54.699Z,18.33
2018-07-15T05:23:54.628Z,18.45
2018-07-15T05:24:54.561Z,18.31
2018-07-15T05:25:54.479Z,18.35
2018-07-15T05:26:54.404Z,18.45
2018-07-15T05:27:54.333Z,18.41
2018-07-15T05:28:54.258Z,18.55
2018-07-15T05:29:54.181Z,18.56
2018-07-15T05:30:54.117Z,18.53
2018-07-15T05:31:54.084Z,18.60
2018-07-15T05:32:53.976Z,18.70
2018-07-15T05:33:53.884Z,18.66
2018-07-15T05:34:53.835Z,18.65
2018-07-15T05:35:53.736Z,18.66
2018-07-15T05:36:53.661Z,18.88
2018-07-15T05:37:53.586Z,18.77
2018-07-15T05:38:53.514Z,18.86
2018-07-15T05:39:53.444Z,18.81
2018-07-15T05:40:53.363Z,18.80
2018-07-15T05:41:53.292Z,18.77
2018-07-15T05:42:53.214Z,18.86
2018-07-15T05:43:53.143Z,18.83
2018-07-15T05:44:53.068Z,18.96
2018-07-15T05:45:53.013Z,18.89
2018-07-15T05:46:52.927Z,18.98
2018-07-15T05:47:52.850Z,18.90
2018-07-15T05:48:52.772Z,18.93
2018-07-15T05:49:52.723Z,19.00
2018-07-15T05:50:52.645Z,19.04
2018-07-15T05:51:52.554Z,19.00
2018-07-15T05:52:52.475Z,19.11
2018-07-15T05:53:52.399Z,19.07
2018-07-15T05:54:52.328Z,19.14
2018-07-15T05:55:52.275Z,19.26
2018-07-15T05:56:52.182Z,19.16
2018-07-15T05:57:52.130Z,19.14
2018-07-15T05:58:52.035Z,19.31
2018-07-15T05:59:51.959Z,19.30
2018-07-15T06:00:51.890Z,19.31
2018-07-15T06:01:51.817Z,19.36
2018-07-15T06:02:51.751Z,19.45
2018-07-15T06:03:51.669Z,19.45
2018-07-15T06:04:51.592Z,19.45
2018-07-15T06:05:51.517Z,19.51
2018-07-15T06:06:51.445Z,19.54
2018-07-15T06:07:51.373Z,19.49
2018-07-15T06:08:51.296Z,19.58
2018-07-15T06:09:51.229Z,19.70
2018-07-15T06:10:51.185Z,19.70
2018-07-15T06:11:51.079Z,19.76
2018-07-15T06:12:51.005Z,19.73
2018-07-15T06:13:50.930Z,19.81
2018-07-15T06:14:50.866Z,19.85
2018-07-15T06:15:50.784Z,19.84
2018-07-15T06:16:50.709Z,19.92
2018-07-15T06:17:50.636Z,19.94
2018-07-15T06:18:50.559Z,19.96
2018-07-15T06:19:50.490Z,20.02
2018-07-15T06:20:50.416Z,20.04
2018-07-15T06:21:50.348Z,20.09
2018-07-15T06:22:50.327Z,20.16
2018-07-15T06:23:50.211Z,20.11
2018-07-15T06:24:50.122Z,20.22
2018-07-15T06:25:50.049Z,20.25
2018-07-15T06:26:49.986Z,20.18
2018-07-15T06:27:49.914Z,20.19
2018-07-15T06:28:49.830Z,20.22
2018-07-15T06:29:49.757Z,20.31
2018-07-15T06:30:49.684Z,20.34
2018-07-15T06:31:49.644Z,20.34
2018-07-15T06:32:49.551Z,20.44
2018-07-15T06:33:49.465Z,20.50
2018-07-15T06:34:49.397Z,20.50
2018-07-15T06:35:49.325Z,20.56
2018-07-15T06:36:49.246Z,20.65
2018-07-15T06:37:49.174Z,20.72
2018-07-15T06:38:49.120Z,20.70
2018-07-15T06:39:49.030Z,20.74
2018-07-15T06:40:48.957Z,20.72
2018-07-15T06:41:48.898Z,20.74
2018-07-15T06:42:48.811Z,20.81
2018-07-15T06:43:48.735Z,20.75
2018-07-15T06:44:48.663Z,20.85
2018-07-15T06:45:48.591Z,20.95
2018-07-15T06:46:48.517Z,20.87
2018-07-15T06:47:48.450Z,20.87
2018-07-15T06:48:48.374Z,20.84
2018-07-15T06:49:48.321Z,20.96
2018-07-15T06:50:48.225Z,20.96
2018-07-15T06:51:48.156Z,20.92
2018-07-15T06:52:48.082Z,21.07
2018-07-15T06:53:48.057Z,21.03
2018-07-15T06:54:47.937Z,21.12
2018-07-15T06:55:47.892Z,21.15
2018-07-15T06:56:47.791Z,21.21
2018-07-15T06:57:47.726Z,21.21
2018-07-15T06:58:47.652Z,21.25
2018-07-15T06:59:47.574Z,21.27
2018-07-15T07:00:47.503Z,21.33
2018-07-15T07:01:47.428Z,21.39
2018-07-15T07:02:47.357Z,21.42
2018-07-15T07:03:47.289Z,21.39
2018-07-15T07:04:47.219Z,21.43
2018-07-15T07:05:47.139Z,21.52
2018-07-15T07:06:47.069Z,21.46
2018-07-15T07:07:47.013Z,21.46
2018-07-15T07:08:46.921Z,21.54
2018-07-15T07:09:46.855Z,21.67
2018-07-15T07:10:46.776Z,21.62
2018-07-15T07:11:46.707Z,21.62
2018-07-15T07:12:46.636Z,21.73
2018-07-15T07:13:46.565Z,21.75
2018-07-15T07:14:46.491Z,21.69
2018-07-15T07:15:46.418Z,21.76
2018-07-15T07:16:46.349Z,21.76
2018-07-15T07:17:46.273Z,21.73
2018-07-15T07:18:46.205Z,21.82
2018-07-15T07:19:46.128Z,21.83
2018-07-15T07:20:46.072Z,21.80
2018-07-15T07:21:45.984Z,21.92
2018-07-15T07:22:45.910Z,21.95
2018-07-15T07:23:45.839Z,21.95
2018-07-15T07:24:45.777Z,22.04
2018-07-15T07:25:45.710Z,22.04
2018-07-15T07:26:45.623Z,22.06
2018-07-15T07:27:45.552Z,22.07
2018-07-15T07:28:45.539Z,22.11
2018-07-15T07:29:45.411Z,22.10
2018-07-15T07:30:45.334Z,22.06
2018-07-15T07:31:45.265Z,22.15
2018-07-15T07:32:45.193Z,22.22
2018-07-15T07:33:45.122Z,22.29
2018-07-15T07:34:45.062Z,22.22
2018-07-15T07:35:44.977Z,22.28
2018-07-15T07:36:44.906Z,22.30
2018-07-15T07:37:44.836Z,22.30
2018-07-15T07:38:44.851Z,22.32
2018-07-15T07:39:44.691Z,22.36
2018-07-15T07:40:44.616Z,22.45
2018-07-15T07:41:44.584Z,22.44
2018-07-15T07:42:44.476Z,22.45
2018-07-15T07:43:44.406Z,22.44
2018-07-15T07:44:44.335Z,22.47
2018-07-15T07:45:44.269Z,22.54
2018-07-15T07:46:44.187Z,22.48
2018-07-15T07:47:44.116Z,22.62
2018-07-15T07:48:44.048Z,22.69
2018-07-15T07:49:43.972Z,22.63
2018-07-15T07:50:43.901Z,22.59
2018-07-15T07:51:43.831Z,22.72
2018-07-15T07:52:43.766Z,22.80
2018-07-15T07:53:43.687Z,22.75
2018-07-15T07:54:43.612Z,22.72
2018-07-15T07:55:43.542Z,22.81
2018-07-15T07:56:43.473Z,22.78
2018-07-15T07:57:43.401Z,22.88
2018-07-15T07:58:43.329Z,22.91
2018-07-15T07:59:43.261Z,22.96
2018-07-15T08:00:43.184Z,23.03
2018-07-15T08:01:43.114Z,23.03
2018-07-15T08:02:43.041Z,23.08
2018-07-15T08:03:42.971Z,22.98
2018-07-15T08:04:42.899Z,23.06
2018-07-15T08:05:42.827Z,23.17
2018-07-15T08:06:42.757Z,23.23
2018-07-15T08:07:42.834Z,23.21
2018-07-15T08:08:42.616Z,23.25
2018-07-15T08:09:42.542Z,23.36
2018-07-15T08:10:42.473Z,23.28
2018-07-15T08:11:42.402Z,23.37
2018-07-15T08:12:42.340Z,23.37
2018-07-15T08:13:42.401Z,23.47
2018-07-15T08:14:42.197Z,23.40
2018-07-15T08:15:42.115Z,23.46
2018-07-15T08:16:42.053Z,23.58
2018-07-15T08:17:41.974Z,23.56
2018-07-15T08:18:41.902Z,23.56
2018-07-15T08:19:41.831Z,23.65
2018-07-15T08:20:41.791Z,23.66
2018-07-15T08:21:41.733Z,23.71
2018-07-15T08:22:41.658Z,23.74
2018-07-15T08:23:41.546Z,23.80
2018-07-15T08:24:41.513Z,23.80
2018-07-15T08:25:41.411Z,23.80
2018-07-15T08:26:41.333Z,23.84
2018-07-15T08:27:41.264Z,23.88
2018-07-15T08:28:41.275Z,23.93
2018-07-15T08:29:41.121Z,23.86
2018-07-15T08:30:41.052Z,23.87
2018-07-15T08:31:40.983Z,23.81
2018-07-15T08:32:40.910Z,23.84
2018-07-15T08:33:40.849Z,23.83
2018-07-15T08:34:40.769Z,23.92
2018-07-15T08:35:40.701Z,23.96
2018-07-15T08:36:40.638Z,23.98
2018-07-15T08:37:40.560Z,23.99
2018-07-15T08:38:40.486Z,24.05
2018-07-15T08:39:40.415Z,24.14
2018-07-15T08:40:40.368Z,24.16
2018-07-15T08:41:40.272Z,24.20
2018-07-15T08:42:40.205Z,24.28
2018-07-15T08:43:40.137Z,24.30
2018-07-15T08:44:40.077Z,24.35
2018-07-15T08:45:40.016Z,24.43
2018-07-15T08:46:39.924Z,24.40
2018-07-15T08:47:39.852Z,24.50
2018-07-15T08:48:39.781Z,24.47
2018-07-15T08:49:39.726Z,24.48
2018-07-15T08:50:39.640Z,24.47
2018-07-15T08:51:39.569Z,24.47
2018-07-15T08:52:39.498Z,24.53
2018-07-15T08:53:39.439Z,24.43
2018-07-15T08:54:39.422Z,24.50
2018-07-15T08:55:39.289Z,24.55
2018-07-15T08:56:39.218Z,24.57
2018-07-15T08:57:39.147Z,24.58
2018-07-15T08:58:39.078Z,24.65
2018-07-15T08:59:39.007Z,24.69
2018-07-15T09:00:38.941Z,24.65
2018-07-15T09:01:38.875Z,24.66
2018-07-15T09:02:38.794Z,24.70
2018-07-15T09:03:38.725Z,24.70
2018-07-15T09:04:38.658Z,24.74
2018-07-15T09:05:38.585Z,24.76
2018-07-15T09:06:38.515Z,24.70
2018-07-15T09:07:38.447Z,24.81
2018-07-15T09:08:38.374Z,24.88
2018-07-15T09:09:38.316Z,24.86
2018-07-15T09:10:38.235Z,24.93
2018-07-15T09:11:38.166Z,24.98
2018-07-15T09:12:38.106Z,25.04
2018-07-15T09:13:38.036Z,24.93
2018-07-15T09:14:37.960Z,25.07
2018-07-15T09:15:37.891Z,25.08
2018-07-15T09:16:37.818Z,25.11
2018-07-15T09:17:37.744Z,25.14
2018-07-15T09:18:37.680Z,25.14
2018-07-15T09:19:37.607Z,25.18
2018-07-15T09:20:37.538Z,25.23
2018-07-15T09:21:37.482Z,25.29
2018-07-15T09:22:37.399Z,25.28
2018-07-15T09:23:37.326Z,25.32
2018-07-15T09:24:37.258Z,25.26
2018-07-15T09:25:37.188Z,25.36
2018-07-15T09:26:37.116Z,25.38
2018-07-15T09:27:37.062Z,25.33
2018-07-15T09:28:36.979Z,25.47
2018-07-15T09:29:36.905Z,25.41
2018-07-15T09:30:36.848Z,25.48
2018-07-15T09:31:36.768Z,25.40
2018-07-15T09:32:36.704Z,25.50
2018-07-15T09:33:36.635Z,25.47
2018-07-15T09:34:36.559Z,25.55
2018-07-15T09:35:36.520Z,25.60
2018-07-15T09:36:36.422Z,25.62
2018-07-15T09:37:36.348Z,25.65
2018-07-15T09:38:36.282Z,25.68
2018-07-15T09:39:36.226Z,25.66
2018-07-15T09:40:36.143Z,25.75
2018-07-15T09:41:36.074Z,25.80
2018-07-15T09:42:36.001Z,25.88
2018-07-15T09:43:35.990Z,25.88
2018-07-15T09:44:35.874Z,25.95
2018-07-15T09:45:35.807Z,25.93
2018-07-15T09:46:35.724Z,25.98
2018-07-15T09:47:35.671Z,25.98
2018-07-15T09:48:35.591Z,25.99
2018-07-15T09:49:35.527Z,26.05
2018-07-15T09:50:35.449Z,26.18
2018-07-15T09:51:35.382Z,26.15
2018-07-15T09:52:35.310Z,26.19
2018-07-15T09:53:35.238Z,26.28
2018-07-15T09:54:35.172Z,26.29
2018-07-15T09:55:35.104Z,26.48
2018-07-15T09:56:35.034Z,26.44
2018-07-15T09:57:34.965Z,26.55
2018-07-15T09:58:34.894Z,26.53
2018-07-15T09:59:34.837Z,26.59
2018-07-15T10:00:34.772Z,26.62
2018-07-15T10:01:34.684Z,26.73
2018-07-15T10:02:34.628Z,26.75
2018-07-15T10:03:34.549Z,26.80
2018-07-15T10:04:34.539Z,26.85
2018-07-15T10:05:34.432Z,26.85
2018-07-15T10:06:34.340Z,26.81
2018-07-15T10:07:34.334Z,26.74
2018-07-15T10:08:34.223Z,26.73
2018-07-15T10:09:34.134Z,26.77
2018-07-15T10:10:34.184Z,26.81
2018-07-15T10:11:33.998Z,26.85
2018-07-15T10:12:33.940Z,26.88
2018-07-15T10:13:33.859Z,27.00
2018-07-15T10:14:33.804Z,27.12
2018-07-15T10:15:33.723Z,27.17
2018-07-15T10:16:33.657Z,27.39
2018-07-15T10:17:33.594Z,27.44
2018-07-15T10:18:33.517Z,27.40
2018-07-15T10:19:33.461Z,27.33
2018-07-15T10:22:15.998Z,27.39
2018-07-15T10:23:15.884Z,27.35
2018-07-15T10:24:15.811Z,27.29
2018-07-15T10:25:15.742Z,27.33
2018-07-15T10:26:15.676Z,27.35
2018-07-15T10:27:15.605Z,27.36
2018-07-15T10:28:15.537Z,27.36
2018-07-15T10:29:15.470Z,27.39
2018-07-15T10:30:15.400Z,27.45
2018-07-15T10:31:15.332Z,27.40
2018-07-15T10:32:15.264Z,27.52
2018-07-15T10:33:15.268Z,27.59
2018-07-15T10:34:15.136Z,27.58
2018-07-15T10:35:15.061Z,27.68
2018-07-15T10:36:14.999Z,27.74
2018-07-15T10:37:14.950Z,27.73
2018-07-15T10:38:14.864Z,27.70
2018-07-15T10:39:14.788Z,27.75
2018-07-15T10:40:14.722Z,27.87
2018-07-15T10:41:14.651Z,27.98
2018-07-15T10:42:14.584Z,28.02
2018-07-15T10:43:14.583Z,28.14
2018-07-15T10:44:14.448Z,28.27
2018-07-15T10:45:14.400Z,28.26
2018-07-15T10:46:14.313Z,28.26
2018-07-15T10:47:14.247Z,28.17
2018-07-15T10:48:14.193Z,28.15
2018-07-15T10:49:14.123Z,28.22
2018-07-15T10:50:14.051Z,28.20
2018-07-15T10:51:13.981Z,28.35
2018-07-15T10:52:13.907Z,28.32
2018-07-15T10:53:13.843Z,28.38
2018-07-15T10:54:13.774Z,28.41
2018-07-15T10:55:13.705Z,28.41
2018-07-15T10:56:13.649Z,28.47
2018-07-15T10:57:13.583Z,28.54
2018-07-15T10:58:13.537Z,28.72
2018-07-15T10:59:13.456Z,28.63
2018-07-15T11:00:13.420Z,28.62
2018-07-15T11:01:13.303Z,28.64
2018-07-15T11:02:13.239Z,28.63
2018-07-15T11:03:13.169Z,28.64
2018-07-15T11:04:13.102Z,28.81
2018-07-15T11:05:13.039Z,28.79
2018-07-15T11:06:12.971Z,28.84
2018-07-15T11:07:12.899Z,28.82
2018-07-15T11:08:12.833Z,28.75
2018-07-15T11:09:12.773Z,28.69
2018-07-15T11:10:12.709Z,28.62
2018-07-15T11:11:12.634Z,28.63
2018-07-15T11:12:12.565Z,28.66
2018-07-15T11:13:12.553Z,28.59
2018-07-15T11:14:12.446Z,28.42
2018-07-15T11:15:12.365Z,28.41
2018-07-15T11:16:12.295Z,28.35
2018-07-15T11:17:12.235Z,28.27
2018-07-15T11:18:12.179Z,28.07
2018-07-15T11:19:12.101Z,27.92
2018-07-15T11:20:12.036Z,27.96
2018-07-15T11:21:11.971Z,27.77
2018-07-15T11:22:11.894Z,27.75
2018-07-15T11:23:11.829Z,27.78
2018-07-15T11:24:11.760Z,27.73
2018-07-15T11:25:11.706Z,27.75
2018-07-15T11:26:11.684Z,27.71
2018-07-15T11:27:11.575Z,27.70
2018-07-15T11:28:11.488Z,27.65
2018-07-15T11:29:11.421Z,27.68
2018-07-15T11:30:11.356Z,27.63
2018-07-15T11:31:11.367Z,27.49
2018-07-15T11:32:11.220Z,27.35
2018-07-15T11:33:11.150Z,27.03
2018-07-15T11:34:11.082Z,26.93
2018-07-15T11:35:11.020Z,26.56
2018-07-15T11:36:10.946Z,26.28
2018-07-15T11:37:10.878Z,25.93
2018-07-15T11:38:10.814Z,25.58
2018-07-15T11:39:10.895Z,25.31
2018-07-15T11:40:10.675Z,25.21
2018-07-15T11:41:10.604Z,24.95
2018-07-15T11:42:10.536Z,24.81
2018-07-15T11:43:10.492Z,24.65
2018-07-15T11:44:10.399Z,24.63
2018-07-15T11:45:10.330Z,24.53
2018-07-15T11:46:10.267Z,24.35
2018-07-15T11:47:10.203Z,24.17
2018-07-15T11:48:10.185Z,24.05
2018-07-15T11:49:10.053Z,23.99
2018-07-15T11:50:09.985Z,23.87
2018-07-15T11:51:09.914Z,23.78
2018-07-15T11:52:09.846Z,23.80
2018-07-15T11:53:09.776Z,23.68
2018-07-15T11:54:09.704Z,23.62
2018-07-15T11:55:09.635Z,23.62
2018-07-15T11:56:09.566Z,23.63
2018-07-15T11:57:09.494Z,23.54
2018-07-15T11:58:09.424Z,23.54
2018-07-15T11:59:09.356Z,23.54
2018-07-15T12:00:09.285Z,23.50
2018-07-15T12:01:09.217Z,23.37
2018-07-15T12:02:09.146Z,23.17
2018-07-15T12:03:09.075Z,23.00
2018-07-15T12:04:09.005Z,22.68
2018-07-15T12:05:08.941Z,22.51
2018-07-15T12:06:08.864Z,22.43
2018-07-15T12:07:08.807Z,22.33
2018-07-15T12:08:08.724Z,22.17
2018-07-15T12:09:08.650Z,22.14
2018-07-15T12:10:08.631Z,22.07
2018-07-15T12:11:08.529Z,22.08
2018-07-15T12:12:08.440Z,21.93
2018-07-15T12:13:08.365Z,21.77
2018-07-15T12:14:08.294Z,21.72
2018-07-15T12:15:08.241Z,21.79
2018-07-15T12:16:08.152Z,21.73
2018-07-15T12:17:08.084Z,21.66
2018-07-15T12:18:08.011Z,21.62
2018-07-15T12:19:07.939Z,21.61
2018-07-15T12:20:07.871Z,21.57
2018-07-15T12:21:07.795Z,21.50
2018-07-15T12:22:07.723Z,21.51
2018-07-15T12:23:07.673Z,21.51
2018-07-15T12:24:07.596Z,21.45
2018-07-15T12:25:07.515Z,21.50
2018-07-15T12:26:07.432Z,21.42
2018-07-15T12:27:07.364Z,21.39
2018-07-15T12:28:07.293Z,21.36
2018-07-15T12:29:07.218Z,21.43
2018-07-15T12:30:07.145Z,21.40
2018-07-15T12:31:07.104Z,21.45
2018-07-15T12:32:07.026Z,21.50
2018-07-15T12:33:06.927Z,21.55
2018-07-15T12:34:06.859Z,21.50
2018-07-15T12:35:06.782Z,21.46
2018-07-15T12:36:06.743Z,21.46
2018-07-15T12:37:06.639Z,21.54
2018-07-15T12:38:06.567Z,21.64
2018-07-15T12:39:06.493Z,21.60
2018-07-15T12:40:06.426Z,21.61
2018-07-15T12:41:06.353Z,21.61
2018-07-15T12:42:06.288Z,21.61
2018-07-15T12:43:06.206Z,21.72
2018-07-15T12:44:06.136Z,21.75
2018-07-15T12:45:06.062Z,21.76
2018-07-15T12:46:05.987Z,21.75
2018-07-15T12:47:05.915Z,21.77
2018-07-15T12:48:05.845Z,21.83
2018-07-15T12:49:05.770Z,21.79
2018-07-15T12:50:05.699Z,21.89
2018-07-15T12:51:05.640Z,21.95
2018-07-15T12:52:05.592Z,21.98
2018-07-15T12:53:05.485Z,22.00